KMCC/MCC METAR and TAF weather

Enter ICAO airport designator
Station Type Date Time Source
KMCC METAR 2022/06/28 15:15 UTC NOAA

KMCC 281515Z AUTO 16007KT 10SM 21/09 A2999 RMK AO2


Station Type Date Time Source
KMCC Decoded METAR 2022/06/28 15:15 UTC NOAA

Sacramento, McClellan Airfield Airport, CA, United States (KMCC) 38-40N 121-24W
Jun 28, 2022 - 11:15 AM EDT / 2022.06.28 1515 UTC
Wind: from the SSE (160 degrees) at 8 MPH (7 KT):0
Visibility: 10 mile(s):0
Temperature: 69 F (21 C)
Dew Point: 48 F (9 C)
Relative Humidity: 46%
Pressure (altimeter): 29.99 in. Hg (1015 hPa)
ob: KMCC 281515Z AUTO 16007KT 10SM 21/09 A2999 RMK AO2
cycle: 15

Station Type Date Time Source
KMCC TAF 2022/06/28 12:27 UTC NOAA

TAF KMCC 281120Z 2812/2912 16008KT P6SM SKC
FM282100 22008KT P6SM SKC
FM290500 16009KT P6SM SKC

Example: see airport list